Time;durP1;ratioP1;P1;durP2;ratioP2;P2;SDS_P1;SDS_P2;PMS_P1;PMS_P2;Temp;Humidity;BMP_temperature;BMP_pressure;BME280_temperature;BME280_humidity;BME280_pressure;Samples;Min_cycle;Max_cycle;Signal;HPM_P1;HPM_P2
2021/04/14 00:00:34;;;;;;;12.68;6.00;;;;;;;1.45;74.08;99076.53;4991078;28;20030;-78
2021/04/14 00:03:00;;;;;;;8.38;5.55;;;;;;;1.45;74.78;99089.22;4992112;28;20022;-78
2021/04/14 00:05:36;;;;;;;7.40;4.72;;;;;;;1.44;74.73;99080.28;5006089;28;20030;-77
2021/04/14 00:08:02;;;;;;;10.52;5.78;;;;;;;1.45;74.73;99089.22;5010479;28;20496;-78
2021/04/14 00:10:30;;;;;;;9.02;5.03;;;;;;;1.44;74.54;99088.38;5008890;28;20026;-78
2021/04/14 00:12:56;;;;;;;7.78;5.28;;;;;;;1.38;75.04;99089.28;5009024;28;20072;-79
2021/04/14 00:15:35;;;;;;;11.27;5.95;;;;;;;1.37;74.90;99092.19;5009186;28;20022;-78
2021/04/14 00:18:01;;;;;;;8.32;5.07;;;;;;;1.38;74.61;99091.16;5007267;28;20500;-78
2021/04/14 00:20:26;;;;;;;9.63;5.88;;;;;;;1.40;75.28;99087.19;5009273;28;20030;-79
2021/04/14 00:22:52;;;;;;;5.93;3.90;;;;;;;1.37;75.22;99084.94;5007947;28;20083;-79
2021/04/14 00:25:22;;;;;;;7.90;5.32;;;;;;;1.33;75.28;99084.53;5008530;28;20030;-78
2021/04/14 00:27:48;;;;;;;7.15;4.93;;;;;;;1.34;76.06;99079.97;5006274;28;20028;-79
2021/04/14 00:30:14;;;;;;;8.80;4.93;;;;;;;1.33;75.82;99089.13;5009201;28;20021;-79
2021/04/14 00:32:39;;;;;;;6.30;5.15;;;;;;;1.30;75.41;99084.97;5006704;28;20142;-78
2021/04/14 00:35:05;;;;;;;8.20;5.60;;;;;;;1.27;75.55;99088.13;4991203;28;20474;-78
2021/04/14 00:37:31;;;;;;;8.45;4.93;;;;;;;1.26;75.83;99080.25;4991115;28;20439;-77
2021/04/14 00:39:57;;;;;;;8.38;5.82;;;;;;;1.26;75.46;99085.66;5007072;28;20044;-78
2021/04/14 00:42:23;;;;;;;9.25;6.47;;;;;;;1.24;76.05;99082.34;4989424;28;20117;-78
2021/04/14 00:44:48;;;;;;;7.55;5.40;;;;;;;1.20;76.09;99081.97;5007895;28;20030;-79
2021/04/14 00:47:17;;;;;;;7.07;4.40;;;;;;;1.14;75.88;99085.53;5008946;28;20033;-78
2021/04/14 00:49:43;;;;;;;7.90;5.78;;;;;;;1.08;76.15;99072.88;5007958;28;20492;-78
2021/04/14 00:52:08;;;;;;;8.15;5.70;;;;;;;1.06;75.74;99074.97;5005537;28;20029;-79
2021/04/14 00:54:33;;;;;;;9.85;6.65;;;;;;;1.04;76.07;99073.31;5008846;28;20030;-77
2021/04/14 00:56:59;;;;;;;9.23;5.53;;;;;;;1.03;76.03;99071.66;5008725;28;20013;-79
2021/04/14 00:59:24;;;;;;;8.02;5.55;;;;;;;1.01;76.63;99071.06;4990239;28;20405;-79
2021/04/14 01:01:49;;;;;;;7.20;5.53;;;;;;;0.97;76.23;99072.53;5008716;28;20029;-79
2021/04/14 01:04:15;;;;;;;9.05;6.55;;;;;;;0.92;76.30;99064.25;5005943;28;20078;-79
2021/04/14 01:06:43;;;;;;;8.85;5.60;;;;;;;0.90;76.54;99069.06;5006723;28;20486;-79
2021/04/14 01:09:08;;;;;;;7.13;5.18;;;;;;;0.85;76.07;99064.31;4987489;28;20061;-79
2021/04/14 01:11:33;;;;;;;6.43;5.30;;;;;;;0.86;75.91;99073.22;5008343;28;20061;-79
2021/04/14 01:13:59;;;;;;;8.68;5.53;;;;;;;0.85;76.40;99067.00;5007629;28;20026;-79
2021/04/14 01:16:24;;;;;;;8.90;5.32;;;;;;;0.88;77.06;99068.44;5008388;28;20110;-79
2021/04/14 01:18:49;;;;;;;7.38;5.50;;;;;;;0.91;76.72;99065.31;5003759;28;20041;-79
2021/04/14 01:21:31;;;;;;;7.45;5.30;;;;;;;0.88;76.75;99063.03;5008281;28;20139;-79
2021/04/14 01:23:57;;;;;;;8.63;4.95;;;;;;;0.90;77.53;99060.94;5006614;28;20431;-79
2021/04/14 01:26:22;;;;;;;7.03;5.90;;;;;;;0.85;76.77;99055.38;5008163;28;20163;-78
2021/04/14 01:28:48;;;;;;;10.05;5.68;;;;;;;0.87;76.68;99054.13;5007181;28;20113;-79
2021/04/14 01:31:16;;;;;;;7.40;5.60;;;;;;;0.86;77.26;99063.28;5011495;28;20022;-78
2021/04/14 01:33:42;;;;;;;7.85;5.35;;;;;;;0.86;76.67;99059.72;5011595;28;20029;-78
2021/04/14 01:36:09;;;;;;;7.72;5.97;;;;;;;0.86;77.23;99055.16;5011516;28;20037;-79
2021/04/14 01:38:35;;;;;;;9.10;5.75;;;;;;;0.86;77.14;99059.72;5011730;28;20049;-78
2021/04/14 01:41:02;;;;;;;7.78;5.00;;;;;;;0.86;76.89;99054.31;5011254;28;20053;-78
2021/04/14 01:43:28;;;;;;;7.60;5.25;;;;;;;0.90;77.25;99052.84;5012896;28;20034;-79
2021/04/14 01:45:54;;;;;;;8.73;6.30;;;;;;;0.92;77.05;99042.66;4998671;28;20129;-79
2021/04/14 01:48:20;;;;;;;6.35;5.13;;;;;;;0.91;77.44;99051.00;4975848;28;20109;-78
2021/04/14 01:50:46;;;;;;;8.73;5.50;;;;;;;0.93;77.48;99049.72;4998474;28;20539;-78
2021/04/14 01:53:17;;;;;;;7.75;6.03;;;;;;;0.95;77.39;99050.31;4994509;28;20073;-78
2021/04/14 01:55:43;;;;;;;8.27;5.60;;;;;;;0.93;77.69;99049.72;5001316;28;20034;-79
2021/04/14 01:58:11;;;;;;;7.28;5.13;;;;;;;0.92;77.44;99049.94;5012638;28;20025;-79
2021/04/14 02:00:50;;;;;;;9.68;6.72;;;;;;;0.92;77.57;99042.66;5008198;28;20086;-79
2021/04/14 02:03:16;;;;;;;9.02;6.13;;;;;;;0.95;77.47;99041.41;5005588;28;20023;-78
2021/04/14 02:05:42;;;;;;;11.77;7.53;;;;;;;0.95;77.42;99039.53;5011986;28;20460;-78
2021/04/14 02:08:08;;;;;;;10.10;6.53;;;;;;;0.95;76.90;99044.09;5011066;28;20061;-79
2021/04/14 02:10:34;;;;;;;7.90;5.75;;;;;;;0.96;76.96;99038.47;5001591;28;20049;-79
2021/04/14 02:13:03;;;;;;;7.82;5.40;;;;;;;0.94;77.60;99045.97;4997337;28;20065;-79
2021/04/14 02:15:33;;;;;;;9.32;6.18;;;;;;;0.92;77.53;99039.94;5010223;28;20163;-79
2021/04/14 02:17:59;;;;;;;6.78;5.50;;;;;;;0.93;77.45;99035.41;5012206;28;20101;-79
2021/04/14 02:20:25;;;;;;;10.60;6.50;;;;;;;0.92;77.73;99034.56;4993887;28;20537;-79
2021/04/14 02:22:52;;;;;;;9.50;6.35;;;;;;;0.95;77.54;99028.72;5000246;28;20067;-79
2021/04/14 02:25:19;;;;;;;9.27;6.30;;;;;;;0.99;77.47;99038.03;5015255;28;20018;-79
2021/04/14 02:27:44;;;;;;;10.43;6.55;;;;;;;0.99;77.58;99034.53;5002348;28;20035;-79
2021/04/14 02:30:30;;;;;;;8.98;6.28;;;;;;;1.00;77.57;99036.19;4986885;28;20115;-79
2021/04/14 02:32:56;;;;;;;9.73;6.55;;;;;;;1.01;78.01;99029.72;4982160;28;20072;-79
2021/04/14 02:35:24;;;;;;;8.35;5.88;;;;;;;0.98;77.49;99024.75;5011340;28;20147;-79
2021/04/14 02:37:49;;;;;;;11.30;6.65;;;;;;;0.96;77.53;99024.97;5011632;28;20485;-79
2021/04/14 02:40:15;;;;;;;8.88;6.10;;;;;;;0.99;77.52;99021.81;5010872;28;20107;-79
2021/04/14 02:42:41;;;;;;;8.18;6.47;;;;;;;1.04;77.63;99026.56;5012069;28;20034;-79
2021/04/14 02:45:09;;;;;;;7.15;5.38;;;;;;;1.02;77.01;99034.91;4995958;28;20034;-79
2021/04/14 02:47:34;;;;;;;9.07;5.65;;;;;;;0.93;77.54;99021.88;5011874;28;20075;-80
2021/04/14 02:49:59;;;;;;;10.00;5.63;;;;;;;0.87;77.12;99019.00;5010083;28;20053;-79
2021/04/14 02:52:25;;;;;;;8.27;6.03;;;;;;;0.86;77.44;99027.31;5010362;28;20463;-79
2021/04/14 02:54:50;;;;;;;8.38;5.50;;;;;;;0.85;77.98;99023.81;5010175;28;20486;-79
2021/04/14 02:57:16;;;;;;;9.27;6.30;;;;;;;0.83;77.42;99019.66;5011101;28;20030;-79
2021/04/14 02:59:41;;;;;;;8.30;5.47;;;;;;;0.83;77.89;99022.34;4999385;28;20037;-79
2021/04/14 03:02:07;;;;;;;7.60;5.03;;;;;;;0.81;77.46;99019.88;4992172;28;20029;-80
2021/04/14 03:04:32;;;;;;;6.72;4.88;;;;;;;0.79;77.77;99019.28;4992746;28;20424;-80
2021/04/14 03:06:58;;;;;;;9.35;5.95;;;;;;;0.78;77.57;99014.09;5011348;28;20069;-80
2021/04/14 03:09:23;;;;;;;10.60;5.70;;;;;;;0.78;77.84;99009.53;4990756;28;20029;-80
2021/04/14 03:11:49;;;;;;;10.45;6.57;;;;;;;0.78;77.98;99011.41;4981377;28;20087;-80
2021/04/14 03:14:14;;;;;;;10.52;6.78;;;;;;;0.79;77.92;99007.66;4987246;28;20048;-79
2021/04/14 03:16:40;;;;;;;10.02;6.60;;;;;;;0.77;77.80;99012.44;5009595;28;20061;-78
2021/04/14 03:19:05;;;;;;;8.13;5.63;;;;;;;0.74;78.12;99013.69;5000009;28;20493;-78
2021/04/14 03:21:31;;;;;;;9.20;6.53;;;;;;;0.72;77.81;99005.84;4991650;28;20023;-79
2021/04/14 03:23:56;;;;;;;7.82;6.10;;;;;;;0.71;77.98;99009.56;5001076;28;20102;-79
2021/04/14 03:26:22;;;;;;;8.02;6.25;;;;;;;0.73;78.33;99007.50;4995823;28;20052;-79
2021/04/14 03:28:48;;;;;;;9.38;5.65;;;;;;;0.70;78.24;99007.91;4974346;28;20022;-79
2021/04/14 03:31:13;;;;;;;11.23;7.15;;;;;;;0.68;77.88;99006.47;4992662;28;20035;-79
2021/04/14 03:33:38;;;;;;;8.55;5.80;;;;;;;0.67;77.82;99002.09;4991995;28;20026;-79
2021/04/14 03:36:05;;;;;;;10.00;6.43;;;;;;;0.69;78.07;99010.81;5004115;28;20044;-79
2021/04/14 03:38:30;;;;;;;10.02;6.03;;;;;;;0.66;78.15;99006.69;5010766;28;20030;-78
2021/04/14 03:40:56;;;;;;;7.57;4.85;;;;;;;0.64;78.25;99006.09;5010670;28;20039;-79
2021/04/14 03:43:21;;;;;;;9.90;6.28;;;;;;;0.66;78.15;99016.66;5011373;28;20482;-78
2021/04/14 03:45:48;;;;;;;9.38;6.80;;;;;;;0.64;78.39;99010.66;4998600;28;20037;-79
2021/04/14 03:48:13;;;;;;;10.27;7.65;;;;;;;0.66;78.29;99011.25;4991652;28;20512;-79
2021/04/14 03:50:39;;;;;;;9.63;6.60;;;;;;;0.67;78.52;99008.34;4992670;28;20027;-78
2021/04/14 03:53:25;;;;;;;11.57;8.38;;;;;;;0.64;78.22;99010.66;4990976;28;20442;-79
2021/04/14 03:55:58;;;;;;;8.13;6.10;;;;;;;0.66;78.41;99014.78;4993856;28;20040;-79
2021/04/14 03:58:24;;;;;;;11.73;6.95;;;;;;;0.66;78.33;99011.25;4994311;28;20036;-79
2021/04/14 04:00:54;;;;;;;10.25;6.40;;;;;;;0.65;78.13;99009.59;5010087;28;20033;-79
2021/04/14 04:03:21;;;;;;;10.30;6.55;;;;;;;0.69;78.55;99017.06;5016855;28;20035;-79
2021/04/14 04:05:47;;;;;;;12.23;7.53;;;;;;;0.72;78.59;99016.63;4973423;28;20694;-79
2021/04/14 04:08:13;;;;;;;9.00;6.60;;;;;;;0.75;78.81;99023.44;4992026;28;20057;-78
2021/04/14 04:10:39;;;;;;;10.35;5.95;;;;;;;0.76;78.67;99019.72;4991701;28;20114;-78
2021/04/14 04:13:05;;;;;;;12.00;7.78;;;;;;;0.73;78.92;99022.84;5002506;28;20110;-79
2021/04/14 04:15:30;;;;;;;10.55;6.63;;;;;;;0.69;78.55;99029.72;5001210;28;20066;-78
2021/04/14 04:17:56;;;;;;;11.77;7.00;;;;;;;0.69;78.73;99024.31;5006760;28;20030;-78
2021/04/14 04:20:21;;;;;;;9.30;6.68;;;;;;;0.70;78.96;99025.97;5001074;28;20037;-79
2021/04/14 04:22:47;;;;;;;10.80;7.10;;;;;;;0.71;78.78;99030.34;4998856;28;20026;-79
2021/04/14 04:25:13;;;;;;;12.45;6.97;;;;;;;0.71;78.62;99031.16;5008850;28;20033;-78
2021/04/14 04:27:38;;;;;;;13.77;8.68;;;;;;;0.72;78.54;99030.13;5010323;28;20398;-79
2021/04/14 04:30:06;;;;;;;11.15;6.75;;;;;;;0.73;78.48;99030.94;5009363;28;20040;-79
2021/04/14 04:32:31;;;;;;;9.25;6.53;;;;;;;0.71;78.97;99028.47;4985246;28;20030;-79
2021/04/14 04:34:57;;;;;;;17.25;8.57;;;;;;;0.70;78.76;99034.91;4990714;28;20390;-79
2021/04/14 04:37:22;;;;;;;12.93;7.78;;;;;;;0.69;78.33;99044.06;4990517;28;20466;-78
2021/04/14 04:39:48;;;;;;;16.02;8.93;;;;;;;0.70;78.54;99042.19;4990576;28;20037;-79
2021/04/14 04:42:14;;;;;;;13.23;9.30;;;;;;;0.71;78.74;99041.13;5000968;28;20030;-79
2021/04/14 04:44:39;;;;;;;14.00;9.18;;;;;;;0.72;78.37;99040.09;5004849;28;20026;-79
2021/04/14 04:47:05;;;;;;;11.63;7.68;;;;;;;0.74;78.54;99046.09;4990602;28;20087;-79
2021/04/14 04:49:31;;;;;;;23.98;14.00;;;;;;;0.79;78.72;99042.75;4990551;28;20486;-79
2021/04/14 04:51:56;;;;;;;14.60;10.25;;;;;;;0.81;78.74;99046.88;5007586;28;20094;-79
2021/04/14 04:54:21;;;;;;;18.83;12.90;;;;;;;0.85;78.45;99048.09;4997255;28;20046;-79
2021/04/14 04:56:47;;;;;;;17.45;12.40;;;;;;;0.88;78.38;99050.38;4992109;28;20048;-79
2021/04/14 04:59:12;;;;;;;21.98;12.23;;;;;;;0.91;78.49;99059.91;4998541;28;20033;-78
2021/04/14 05:01:38;;;;;;;20.95;11.48;;;;;;;0.91;78.16;99062.59;5007545;28;20034;-80
2021/04/14 05:04:04;;;;;;;28.50;15.82;;;;;;;0.87;78.46;99067.63;4999139;28;20033;-80
2021/04/14 05:06:29;;;;;;;20.77;11.43;;;;;;;0.89;78.57;99065.53;4994325;28;20417;-79
2021/04/14 05:08:54;;;;;;;36.38;17.52;;;;;;;0.90;78.08;99069.06;5007786;28;20038;-79
2021/04/14 05:11:20;;;;;;;33.92;17.10;;;;;;;0.88;78.13;99065.75;5008254;28;20026;-79
2021/04/14 05:13:45;;;;;;;42.63;23.02;;;;;;;0.93;78.04;99059.69;5009600;28;20402;-80
2021/04/14 05:16:10;;;;;;;57.08;30.23;;;;;;;0.95;78.39;99065.72;5009517;28;20034;-80
2021/04/14 05:18:36;;;;;;;66.10;30.55;;;;;;;1.02;77.91;99069.16;5008094;28;20018;-80
2021/04/14 05:21:06;;;;;;;40.65;20.30;;;;;;;1.04;78.07;99062.53;5008773;28;20446;-79
2021/04/14 05:23:32;;;;;;;49.80;20.58;;;;;;;1.07;77.93;99066.66;5009513;28;20486;-80
2021/04/14 05:25:57;;;;;;;48.15;19.63;;;;;;;1.10;77.91;99074.31;4989309;28;20091;-80
2021/04/14 05:28:25;;;;;;;36.40;16.92;;;;;;;1.10;77.61;99074.31;4995380;28;20034;-78
2021/04/14 05:30:51;;;;;;;25.23;12.10;;;;;;;1.11;77.75;99077.84;5009420;28;20108;-79
2021/04/14 05:33:18;;;;;;;23.88;13.73;;;;;;;1.04;77.91;99069.78;4999909;28;20482;-79
2021/04/14 05:35:44;;;;;;;40.20;17.83;;;;;;;1.08;77.78;99073.72;4990441;28;20509;-79
2021/04/14 05:38:10;;;;;;;33.47;16.70;;;;;;;1.10;77.94;99073.50;5007640;28;20057;-79
2021/04/14 05:40:36;;;;;;;37.65;17.08;;;;;;;1.08;77.86;99081.81;5006240;28;20061;-80
2021/04/14 05:43:12;;;;;;;27.25;14.75;;;;;;;1.08;77.61;99078.28;5000797;28;20062;-79
2021/04/14 05:45:37;;;;;;;25.38;12.52;;;;;;;1.07;77.73;99077.44;5009785;28;20083;-80
2021/04/14 05:48:03;;;;;;;30.02;14.25;;;;;;;1.06;77.76;99074.97;5008903;28;20424;-80
2021/04/14 05:50:28;;;;;;;27.23;14.23;;;;;;;1.03;77.75;99078.94;5000215;28;20026;-79
2021/04/14 05:52:54;;;;;;;37.83;19.42;;;;;;;1.04;78.04;99083.28;4992286;28;20083;-80
2021/04/14 05:55:20;;;;;;;34.35;18.50;;;;;;;1.07;77.65;99082.84;5007360;28;20030;-79
2021/04/14 05:57:45;;;;;;;30.80;18.00;;;;;;;1.05;78.06;99084.94;5008699;28;20393;-79
2021/04/14 06:00:16;;;;;;;28.50;15.45;;;;;;;1.06;77.76;99089.31;5009303;28;20026;-79
2021/04/14 06:02:42;;;;;;;32.92;18.55;;;;;;;1.02;78.08;99085.38;5009251;28;20525;-79
2021/04/14 06:05:12;;;;;;;28.23;15.73;;;;;;;1.04;77.91;99088.69;5004145;28;20030;-80
2021/04/14 06:07:38;;;;;;;28.60;16.90;;;;;;;1.07;77.88;99096.38;4991414;28;20094;-79
2021/04/14 06:10:05;;;;;;;41.38;22.27;;;;;;;1.15;77.93;99079.09;5004671;28;20030;-79
2021/04/14 06:12:31;;;;;;;43.40;25.63;;;;;;;1.27;77.71;99088.13;5009221;28;20030;-79
2021/04/14 06:14:56;;;;;;;50.72;30.65;;;;;;;1.36;77.91;99091.41;5008872;28;20021;-79
2021/04/14 06:17:22;;;;;;;57.83;30.83;;;;;;;1.44;77.34;99093.78;5011606;28;20485;-79
2021/04/14 06:19:47;;;;;;;53.25;26.08;;;;;;;1.55;77.76;99091.44;5012156;28;20026;-78
2021/04/14 06:22:13;;;;;;;39.72;20.52;;;;;;;1.63;77.88;99089.25;5012397;28;20067;-78
2021/04/14 06:24:38;;;;;;;29.52;17.08;;;;;;;1.71;77.48;99081.91;5005539;28;20387;-78
2021/04/14 06:27:06;;;;;;;25.17;15.50;;;;;;;1.76;77.66;99092.91;5011866;28;20053;-77
2021/04/14 06:29:31;;;;;;;22.13;14.60;;;;;;;1.82;77.19;99091.19;5008118;28;20117;-78
2021/04/14 06:31:58;;;;;;;22.80;14.18;;;;;;;1.86;77.50;99084.25;5011492;28;20546;-77
2021/04/14 06:34:25;;;;;;;22.02;13.93;;;;;;;1.90;76.87;99088.19;5011314;28;20527;-78
2021/04/14 06:36:56;;;;;;;17.05;11.40;;;;;;;1.91;77.10;99087.13;4999569;28;20030;-78
2021/04/14 06:39:25;;;;;;;18.10;12.45;;;;;;;1.88;76.76;99079.47;5009720;28;20025;-78
2021/04/14 06:42:15;;;;;;;24.75;15.65;;;;;;;1.90;76.87;99089.03;5001854;28;20113;-77
2021/04/14 06:44:57;;;;;;;18.17;12.63;;;;;;;1.90;77.06;99085.47;5009885;28;20584;-76
2021/04/14 06:47:46;;;;;;;22.35;13.80;;;;;;;1.93;76.70;99091.28;5009367;28;20026;-77
2021/04/14 06:50:17;;;;;;;27.60;17.60;;;;;;;1.99;76.54;99089.56;4993822;28;20371;-77
2021/04/14 06:52:50;;;;;;;;;;;;;;;2.07;76.83;99091.97;5012120;28;20065;-77
2021/04/14 06:55:23;;;;;;;25.13;13.43;;;;;;;2.14;76.80;99088.38;5011032;28;20022;-76
2021/04/14 06:57:56;;;;;;;19.70;12.18;;;;;;;2.26;77.16;99083.03;5002915;28;20091;-76
2021/04/14 07:00:30;;;;;;;18.95;12.27;;;;;;;2.37;77.07;99077.66;5006284;28;20026;-78
2021/04/14 07:02:58;;;;;;;19.73;12.35;;;;;;;2.42;76.44;99077.00;5003976;28;20026;-79
2021/04/14 07:05:31;;;;;;;15.32;10.15;;;;;;;2.50;76.78;99079.38;4998933;28;20035;-79
2021/04/14 07:08:00;;;;;;;21.42;13.25;;;;;;;2.63;76.16;99067.56;5004935;28;20552;-77
2021/04/14 07:10:31;;;;;;;19.08;11.98;;;;;;;2.73;76.17;99068.88;5010064;28;20050;-76
2021/04/14 07:13:03;;;;;;;16.80;10.00;;;;;;;2.74;76.32;99071.38;5010623;28;20026;-77
2021/04/14 07:15:30;;;;;;;16.48;9.95;;;;;;;2.78;75.98;99069.84;5011274;28;20033;-77
2021/04/14 07:18:01;;;;;;;27.00;14.52;;;;;;;2.89;75.50;99076.38;5011145;28;20109;-74
2021/04/14 07:20:38;;;;;;;18.50;11.43;;;;;;;2.95;75.82;99069.19;5011235;28;20083;-75
2021/04/14 07:23:23;;;;;;;15.27;9.50;;;;;;;3.00;74.80;99076.63;5011293;28;20022;-76
2021/04/14 07:26:00;;;;;;;26.05;15.07;;;;;;;2.96;75.53;99070.84;5011216;28;20432;-77
2021/04/14 07:28:52;;;;;;;22.15;14.13;;;;;;;2.97;75.56;99073.34;5011233;28;20037;-75
2021/04/14 07:31:26;;;;;;;14.57;9.68;;;;;;;3.02;75.10;99074.53;4993688;28;20030;-76
2021/04/14 07:34:04;;;;;;;21.77;11.85;;;;;;;3.01;75.71;99072.88;5010780;28;20033;-75
2021/04/14 07:36:56;;;;;;;26.83;14.10;;;;;;;3.02;75.26;99069.91;5010986;28;20045;-75
2021/04/14 07:39:50;;;;;;;19.58;10.50;;;;;;;3.02;74.94;99074.53;5011135;28;20034;-75
2021/04/14 07:42:30;;;;;;;27.25;14.95;;;;;;;2.97;75.29;99081.47;5010858;28;20117;-75
2021/04/14 07:45:13;;;;;;;29.83;15.05;;;;;;;2.93;75.20;99069.44;5011214;28;20094;-77
2021/04/14 07:47:47;;;;;;;19.33;11.32;;;;;;;2.96;75.61;99081.69;5011020;28;20061;-74
2021/04/14 07:50:14;;;;;;;19.30;10.93;;;;;;;3.03;74.87;99081.59;5010930;28;20052;-75
2021/04/14 07:52:40;;;;;;;37.45;17.65;;;;;;;3.05;75.49;99082.19;5010699;28;20022;-74
2021/04/14 07:55:26;;;;;;;19.33;12.68;;;;;;;3.09;75.83;99080.66;5010431;28;20033;-75
2021/04/14 07:57:52;;;;;;;19.67;12.35;;;;;;;3.16;75.84;99078.66;5010427;28;20021;-75
2021/04/14 08:00:34;;;;;;;21.25;12.63;;;;;;;3.20;75.42;99084.47;5010351;28;20028;-75
2021/04/14 08:03:17;;;;;;;25.63;14.55;;;;;;;3.17;75.56;99077.59;4992806;28;20022;-75
2021/04/14 08:05:43;;;;;;;24.70;13.15;;;;;;;3.20;75.42;99079.03;5010273;28;20112;-75
2021/04/14 08:08:27;;;;;;;73.50;25.30;;;;;;;3.21;75.03;99078.00;5010487;28;20034;-75
2021/04/14 08:11:04;;;;;;;44.33;17.73;;;;;;;3.31;74.97;99080.94;5010226;28;20052;-76
2021/04/14 08:13:35;;;;;;;125.43;35.78;;;;;;;3.47;74.84;99075.91;5010457;28;20022;-78
2021/04/14 08:16:10;;;;;;;25.40;13.90;;;;;;;3.62;74.99;99067.28;5009737;28;20508;-79
2021/04/14 08:18:38;;;;;;;48.03;18.00;;;;;;;3.83;74.88;99074.00;5008529;28;20030;-79
2021/04/14 08:21:10;;;;;;;36.33;14.52;;;;;;;3.90;75.21;99077.44;5009875;28;20034;-78
2021/04/14 08:23:36;;;;;;;19.95;10.88;;;;;;;4.01;74.18;99078.47;5008863;28;20030;-78
2021/04/14 08:26:13;;;;;;;18.15;10.23;;;;;;;4.13;74.62;99073.88;5008685;28;20053;-78
2021/04/14 08:28:48;;;;;;;16.08;10.60;;;;;;;4.19;74.24;99071.28;5009517;28;20104;-77
2021/04/14 08:31:50;;;;;;;19.67;12.35;;;;;;;4.29;74.66;99071.47;5009736;28;20029;-78
2021/04/14 08:34:33;;;;;;;14.93;9.50;;;;;;;4.42;73.52;99073.09;5009359;28;20030;-77
2021/04/14 08:37:07;;;;;;;14.90;9.95;;;;;;;4.44;73.35;99063.63;5010064;28;20123;-77
2021/04/14 08:39:35;;;;;;;20.05;9.60;;;;;;;4.38;72.83;99063.78;5009731;28;20076;-78
2021/04/14 08:42:22;;;;;;;18.75;11.30;;;;;;;4.25;72.71;99064.88;5009532;28;20450;-77
2021/04/14 08:44:54;;;;;;;13.85;8.48;;;;;;;3.99;71.91;99078.72;5010004;28;20539;-78
2021/04/14 08:47:31;;;;;;;11.32;7.65;;;;;;;3.84;72.34;99062.94;5008708;28;20500;-77
2021/04/14 08:50:11;;;;;;;16.88;9.20;;;;;;;3.85;72.39;99061.88;5009201;28;20109;-77
2021/04/14 08:52:43;;;;;;;;;;;;;;;3.88;72.60;99064.09;5008831;28;20033;-77
2021/04/14 08:55:10;;;;;;;22.70;10.68;;;;;;;3.95;72.89;99052.28;5009666;28;19939;-77
2021/04/14 08:57:35;;;;;;;38.15;13.60;;;;;;;4.10;73.10;99058.06;5009693;28;20539;-77
2021/04/14 09:00:02;;;;;;;42.55;16.65;;;;;;;4.29;72.79;99052.44;5009465;28;20038;-78
2021/04/14 09:02:28;;;;;;;20.67;9.52;;;;;;;4.52;72.25;99043.41;5009915;28;20026;-77
2021/04/14 09:04:55;;;;;;;15.43;8.57;;;;;;;4.75;72.32;99042.47;5009774;28;20465;-78
2021/04/14 09:07:36;;;;;;;28.02;9.18;;;;;;;4.91;71.79;99051.75;5009454;28;20457;-77
2021/04/14 09:10:06;;;;;;;31.27;10.10;;;;;;;5.00;69.81;99052.19;5009480;28;20062;-79
2021/04/14 09:12:38;;;;;;;;;;;;;;;5.00;69.93;99046.75;5010179;28;20109;-78
2021/04/14 09:15:08;;;;;;;25.05;9.50;;;;;;;5.04;69.60;99041.63;5009684;28;19922;-78
2021/04/14 09:17:34;;;;;;;24.60;13.15;;;;;;;5.11;70.01;99041.47;5010169;28;20023;-78
2021/04/14 09:20:21;;;;;;;15.57;7.07;;;;;;;5.15;68.98;99048.91;5010026;28;20030;-78
2021/04/14 09:23:18;;;;;;;30.52;11.52;;;;;;;5.14;68.64;99043.69;5009876;28;20502;-79
2021/04/14 09:25:51;;;;;;;19.45;8.30;;;;;;;5.05;67.65;99049.56;5009641;28;20114;-78
2021/04/14 09:28:31;;;;;;;17.63;9.20;;;;;;;5.02;67.22;99041.06;5009780;28;20022;-79
2021/04/14 09:31:28;;;;;;;17.63;8.25;;;;;;;4.98;67.18;99035.28;4991928;28;20615;-79
2021/04/14 09:33:55;;;;;;;26.40;12.20;;;;;;;5.03;67.33;99039.97;5009315;28;20065;-79
2021/04/14 09:36:32;;;;;;;10.88;5.80;;;;;;;5.00;66.90;99033.16;5009334;28;20030;-78
2021/04/14 09:39:32;;;;;;;37.65;15.52;;;;;;;5.07;67.68;99033.00;5009553;28;20026;-79
2021/04/14 09:41:58;;;;;;;;;;;;;;;5.13;66.15;99023.84;4992321;28;20487;-79
2021/04/14 09:44:35;;;;;;;16.50;8.13;;;;;;;5.25;66.55;99017.53;5009508;28;19914;-79
2021/04/14 09:47:33;;;;;;;26.45;12.32;;;;;;;5.39;66.92;99024.25;5009311;28;20397;-79
2021/04/14 09:50:36;;;;;;;9.00;4.40;;;;;;;5.51;66.58;99024.16;5012753;28;20034;-78
2021/04/14 09:53:17;;;;;;;9.68;4.85;;;;;;;5.56;65.93;99016.06;5017033;28;20568;-78
2021/04/14 09:55:48;;;;;;;15.63;7.20;;;;;;;5.70;66.24;99005.69;5014598;28;20512;-78
2021/04/14 09:58:42;;;;;;;25.42;12.52;;;;;;;5.85;65.75;99009.66;5012606;28;20022;-79
2021/04/14 10:01:22;;;;;;;10.43;5.80;;;;;;;5.87;66.21;98999.34;5013237;28;20102;-78
2021/04/14 10:03:49;;;;;;;11.73;6.63;;;;;;;5.74;65.08;99000.56;5011572;28;20041;-79
2021/04/14 10:06:21;;;;;;;16.60;8.43;;;;;;;5.55;63.83;99016.34;5011561;28;20045;-78
2021/04/14 10:08:47;;;;;;;9.00;4.82;;;;;;;5.27;64.03;99015.38;5011972;28;20026;-79
2021/04/14 10:11:36;;;;;;;8.70;4.55;;;;;;;5.01;64.34;99021.22;4994885;28;20355;-78
2021/04/14 10:14:08;;;;;;;14.80;6.75;;;;;;;4.97;65.60;99011.91;5012467;28;20116;-78
2021/04/14 10:16:33;;;;;;;12.15;6.75;;;;;;;5.01;65.73;99014.94;5012365;28;20420;-78
2021/04/14 10:19:08;;;;;;;14.40;8.57;;;;;;;5.13;66.13;99012.13;5012530;28;20257;-78
2021/04/14 10:21:36;;;;;;;11.52;6.78;;;;;;;5.32;66.71;99013.56;5012375;28;20050;-79
2021/04/14 10:24:06;;;;;;;13.05;7.10;;;;;;;5.47;66.09;99002.06;5012391;28;20500;-79
2021/04/14 10:26:34;;;;;;;14.27;8.30;;;;;;;5.63;65.09;99007.75;5012351;28;20488;-78
2021/04/14 10:29:01;;;;;;;19.50;9.15;;;;;;;5.76;65.16;98995.69;5012429;28;20034;-79
2021/04/14 10:31:29;;;;;;;16.00;7.75;;;;;;;5.79;65.22;98989.75;5011751;28;20154;-78
2021/04/14 10:34:10;;;;;;;74.13;31.73;;;;;;;5.75;64.71;98991.31;4993560;28;20477;-77
2021/04/14 10:36:42;;;;;;;20.88;10.30;;;;;;;5.71;64.46;98985.53;4974856;28;20023;-78
2021/04/14 10:39:18;;;;;;;10.07;5.70;;;;;;;5.53;64.24;98999.44;4992528;28;20038;-78
2021/04/14 10:41:48;;;;;;;10.68;5.72;;;;;;;5.22;65.01;99014.22;4992724;28;20026;-77
2021/04/14 10:44:33;;;;;;;16.58;9.80;;;;;;;4.85;65.69;99019.28;4992579;28;20095;-77
2021/04/14 10:47:06;;;;;;;9.50;6.35;;;;;;;4.39;66.07;99011.94;4974941;28;20038;-77
2021/04/14 10:49:35;;;;;;;13.50;8.23;;;;;;;4.07;66.71;99012.38;4992518;28;20031;-77
2021/04/14 10:52:10;;;;;;;14.07;8.27;;;;;;;3.91;68.46;99018.53;5005048;28;20151;-77
2021/04/14 10:54:39;;;;;;;17.90;9.45;;;;;;;3.93;68.02;99008.28;5009230;28;20448;-77
2021/04/14 10:57:08;;;;;;;22.42;12.20;;;;;;;3.98;68.72;99008.38;5011581;28;20037;-76
2021/04/14 10:59:35;;;;;;;19.08;10.55;;;;;;;4.10;68.74;99001.06;5011620;28;20379;-76
2021/04/14 11:02:01;;;;;;;16.35;9.73;;;;;;;4.25;69.09;99002.44;5011314;28;20026;-77
2021/04/14 11:04:29;;;;;;;15.65;9.70;;;;;;;4.33;69.53;99004.75;5011582;28;20101;-78
2021/04/14 11:07:03;;;;;;;45.25;22.48;;;;;;;4.43;69.99;98999.50;5011343;28;20133;-78
2021/04/14 11:09:32;;;;;;;22.75;13.20;;;;;;;4.62;70.07;99002.06;5011696;28;20044;-77
2021/04/14 11:12:03;;;;;;;22.73;12.43;;;;;;;4.77;69.60;99002.31;5011647;28;20022;-78
2021/04/14 11:14:30;;;;;;;17.42;10.55;;;;;;;4.94;69.13;99001.50;5011417;28;20026;-77
2021/04/14 11:16:55;;;;;;;25.35;13.15;;;;;;;5.14;69.50;98997.47;5011450;28;20026;-77
2021/04/14 11:19:25;;;;;;;21.00;11.95;;;;;;;5.36;69.01;98998.38;5011324;28;20030;-78
2021/04/14 11:22:07;;;;;;;31.17;15.98;;;;;;;5.56;68.78;98993.50;5011531;28;20022;-78
2021/04/14 11:24:47;;;;;;;23.85;12.40;;;;;;;5.72;69.00;98984.47;5011511;28;20109;-78
2021/04/14 11:27:19;;;;;;;20.58;11.60;;;;;;;5.77;68.41;98979.09;5011320;28;20113;-77
2021/04/14 11:29:47;;;;;;;21.73;13.70;;;;;;;5.75;68.04;98985.88;4993681;28;20034;-77
2021/04/14 11:32:25;;;;;;;26.83;13.38;;;;;;;5.86;68.37;98976.78;5011420;28;20028;-78
2021/04/14 11:35:07;;;;;;;23.88;14.02;;;;;;;6.03;68.01;98976.75;4993724;28;20030;-78
2021/04/14 11:37:35;;;;;;;25.10;12.82;;;;;;;6.14;67.84;98971.41;5011191;28;20112;-78
2021/04/14 11:40:20;;;;;;;22.88;14.35;;;;;;;6.21;67.13;98972.88;5011091;28;20381;-78
2021/04/14 11:43:02;;;;;;;18.35;11.15;;;;;;;6.26;67.12;98972.09;4993745;28;20061;-78
2021/04/14 11:45:40;;;;;;;23.88;11.55;;;;;;;6.23;67.39;98973.44;5011118;28;20037;-77
2021/04/14 11:48:12;;;;;;;22.10;12.50;;;;;;;6.17;66.83;98973.59;5010258;28;20367;-78